KOFK/OFK METAR and TAF weather

Enter ICAO airport designator
Station Type Date Time Source
KOFK METAR 2020/04/05 21:56 UTC NOAA

KOFK 052156Z AUTO 15015G29KT 10SM CLR 15/M01 A2992 RMK AO2 PK WND 16029/2149 SLP139 T01501006 $


Station Type Date Time Source
KOFK Decoded METAR 2020/04/05 21:56 UTC NOAA

KARL STEFAN MEMORIAL AIRPORT, NE, United States (KOFK) 41-59N 097-26W 470M
Apr 05, 2020 - 05:56 PM EDT / 2020.04.05 2156 UTC
Wind: from the SSE (150 degrees) at 17 MPH (15 KT) gusting to 33 MPH (29 KT):0
Visibility: 10 mile(s):0
Sky conditions: clear
Temperature: 59.0 F (15.0 C)
Dew Point: 30.9 F (-0.6 C)
Relative Humidity: 34%
Pressure (altimeter): 29.92 in. Hg (1013 hPa)
ob: KOFK 052156Z AUTO 15015G29KT 10SM CLR 15/M01 A2992 RMK AO2 PK WND 16029/2149 SLP139 T01501006
cycle: 22

Station Type Date Time Source
KOFK TAF 2020/04/05 19:54 UTC NOAA

TAF
AMD KOFK 051852Z 0519/0618 16012KT 6SM HZ VCSH SCT120
FM052000 16016KT 6SM HZ SCT200
FM060100 15012KT P6SM SCT100
FM060800 16009KT 6SM -DZ OVC020
FM061100 18010KT 6SM BR OVC008

Example: see airport list